AirNav   Airventure
 
 300 users online  

SC90 Do-Little Field Airport
St Matthews, South Carolina, USA

GOING TO ST MATTHEWS?


FAA INFORMATION EFFECTIVE 20 JULY 2017

Location

FAA Identifier: SC90
Lat/Long: 33-40-34.0000N / 080-56-54.0000W
33-40.566667N / 080-56.900000W
33.6761111 / -80.9483333
(estimated)
Elevation: 369 ft. / 112 m (estimated)
Variation: 05W (1990)
From city: 9 miles W of ST. MATTHEWS, SC
Time zone: UTC -4 (UTC -5 during Standard Time)
Zip code: 29135

Airport Operations

Airport use: Private use. Permission required prior to landing
Activation date: 06/1993
Control tower: no
ARTCC: JACKSONVILLE CENTER
FSS: ANDERSON FLIGHT SERVICE STATION
Attendance: UNATNDD
Wind indicator: yes
Segmented circle: no

Airport Communications

WX ASOS at OGB (14 nm S): 118.525 (803-536-3901)
WX ASOS at CUB (18 nm N): 119.675 (803-929-0665)
WX ASOS at CAE (18 nm NW): PHONE 803-822-4168

Nearby radio navigation aids

VOR radial/distance  VOR name  Freq  Var
CAEr156/12.1COLUMBIA VORTAC114.7002W
MMTr214/16.6MC ENTIRE VORTAC113.2008W
VANr302/27.7VANCE VORTAC110.4006W

 
NDB name  Hdg/Dist  Freq  Var  ID
SUMTER244/34.925207WSMS ... -- ...
AIKEN094/36.434706WAIK .- .. -.-
MANNING284/37.538106WMNI -- -. ..
WINNSBORO175/39.241407WFDW ..-. -.. .--

Airport Services

Runway Information

Runway 14/32

Dimensions: 3200 x 100 ft. / 975 x 30 m
Surface: turf
RUNWAY 14  RUNWAY 32
Traffic pattern: leftright

Airport Ownership and Management from official FAA records

Ownership: Privately-owned
Owner: DO-LITTLE FIELD INC
160 DO LITTLE LANE
ST MATTHEWS, SC 29135
Phone 803-874-4281
Manager: BILL MITCHELL
35 DOOLITTLE LN
ST MATTHEWS, SC 29135
Phone 803-874-1310

Airport Operational Statistics

Aircraft based on the field: 9
Single engine airplanes: 9
    

Instrument Procedures

There are no published instrument procedures at SC90.

Some nearby airports with instrument procedures:

KXNO - North Air Force Auxiliary Field (8 nm SW)
KOGB - Orangeburg Municipal Airport (14 nm S)
KMMT - Mc Entire Joint National Guard Base (16 nm NE)
6J0 - Lexington County Airport at Pelion (16 nm NW)
KCUB - Jim Hamilton L B Owens Airport (18 nm N)
KCAE - Columbia Metropolitan Airport (18 nm NW)
 
Loc | Ops | Rwys | IFR | FBO | Links
Com | Nav | Svcs | Stats | Notes


 
Area around SC90 (Do-Little Field Airport)
 
Road maps at: MapQuest Bing Google
 
Aerial photo
WARNING: Photo may not be current or correct
Aerial photo of SC90 (Do-Little Field Airport)
Photo by Eddie Price
Photo taken 10-Nov-2012
looking west.

Do you have a better or more recent aerial photo of Do-Little Field Airport that you would like to share? If so, please send us your photo.

 
Sectional chart

 
Airport distance calculator
Flying to Do-Little Field Airport? Find the distance to fly.

From to SC90

Sunrise and sunset
Times for 22-Jul-2017
 Local
(UTC-4)
 Zulu
(UTC)
Morning civil twilight06:0210:02
Sunrise06:3010:30
Sunset20:3100:31
Evening civil twilight20:5800:58

Current date and time
Zulu (UTC)  22-Jul-2017 08:20:05
Local (UTC-4)  22-Jul-2017 04:20:05
 
METAR
KXNO 
8nm SW 
220758Z AUTO 17003KT 10SM CLR 23/20 A2999 RMK AO2 SLP155 T02320204 $
KOGB 
13nm S 
220753Z AUTO 00000KT 8SM CLR 23/22 A2999 RMK AO2 SLP154 T02330222
KMMT 
17nm NE 
220758Z AUTO 00000KT 10SM CLR 24/23 A2999 RMK AO2 SLP155 T02360233 $
KCAE 
18nm NW 
220756Z 24003KT 10SM CLR 25/22 A2997 RMK AO2 SLP146 T02500217
KCUB 
18nm N 
220753Z AUTO 00000KT 10SM CLR 26/22 A2998 RMK AO2 SLP151 T02560222
TAF
KOGB 
13nm S 
220520Z 2206/2306 18004KT P6SM SCT120 FM221800 23007KT P6SM SCT035 FM230300 21005KT P6SM SCT120
KMMT 
17nm NE 
212300Z 2123/2305 19006KT 9999 SCT050 SCT250 QNH2996INS BECMG 2214/2215 20009KT 9999 FEW050 SCT250 QNH2990INS TEMPO 2221/2224 20012G20KT 4800 -TSRA BKN040CB TX36/2221Z TN24/2212Z
KCAE 
18nm NW 
220520Z 2206/2306 21004KT P6SM SCT120 FM221600 21008KT P6SM SCT035 FM230300 22006KT P6SM SCT120
KCUB 
18nm N 
220520Z 2206/2306 21003KT P6SM FEW150 FM221600 22007KT P6SM SCT035 FM230300 21005KT P6SM SCT120
NOTAMs
Click for the latest NOTAMs
NOTAMs are issued by the DoD/FAA and will open in a separate window not controlled by AirNav.

 

 
 

Would you like to see your business listed on this page?

 If your business provides an interesting product or service to pilots, flight crews, aircraft, or users of the Do-Little Field Airport, you should consider listing it here.  To start the listing process, click on the button below
 
Add a business
 

Other Pages about Do-Little Field Airport

Update a link
 
Copyright © AirNav, LLC. All rights reserved. Privacy Policy  Contact